^^
Saratoga-Weather Station Historical Data
Daily Summary for May 29, 2020 Units:  Both    English   Metric
Daily Weekly Monthly Yearly Custom
  High: Low: Average:
Temperature: 62.6 °F /  17 °C 50.5 °F /  10.3 °C 55.9 °F /  13.3 °C
Dew Point: 52 °F /  11.1 °C 45.7 °F /  7.6 °C 48.7 °F /  9.3 °C
Humidity: 89% 56% 78%
Wind Speed: 11mph /  17.7km/h - 2.9mph /  4.6km/h
Wind Gust: 17mph /  27.4km/h - -
Wind- - West
Pressure: 29.8 in /  1007.8 hPa 29.7 in /  1005.8 hPa -
Precipitation: 0.02 in /  0.5 mm    
Historical Graphs
 
 
Tabular Data for May 29, 2020
Time Temperature Dew Point Pressure Wind Wind Speed Wind Gust Humidity Rainfall Rate (Hourly) solar
00:01 54.5 °F /  12.5 °C 47.8 °F /  8.8 °C 29.7in /  1005.8hPa WNW 2.9mph /  4.7km/h 3mph /  4.8km/h 78% 0in /  0.0mm 0 W/m2
00:06 54.5 °F /  12.5 °C 47.8 °F /  8.8 °C 29.7in /  1005.8hPa NNW 2mph /  3.2km/h 2mph /  3.2km/h 78% 0in /  0.0mm 0 W/m2
00:11 54.3 °F /  12.4 °C 47.7 °F /  8.7 °C 29.7in /  1005.8hPa WSW 2.9mph /  4.7km/h 4mph /  6.4km/h 78% 0in /  0.0mm 0 W/m2
00:16 54.1 °F /  12.3 °C 47.5 °F /  8.6 °C 29.7in /  1005.8hPa WNW 2.9mph /  4.7km/h 6mph /  9.7km/h 78% 0in /  0.0mm 0 W/m2
00:21 54.1 °F /  12.3 °C 47.8 °F /  8.8 °C 29.7in /  1005.8hPa North 4.9mph /  7.9km/h 7mph /  11.3km/h 79% 0in /  0.0mm 0 W/m2
00:26 54 °F /  12.2 °C 47.7 °F /  8.7 °C 29.7in /  1005.8hPa WNW 2mph /  3.2km/h 3mph /  4.8km/h 79% 0in /  0.0mm 0 W/m2
00:31 54 °F /  12.2 °C 47.7 °F /  8.7 °C 29.7in /  1005.8hPa West 6mph /  9.7km/h 6mph /  9.7km/h 79% 0in /  0.0mm 0 W/m2
00:36 53.8 °F /  12.1 °C 47.5 °F /  8.6 °C 29.7in /  1005.8hPa NW 2mph /  3.2km/h 7mph /  11.3km/h 79% 0in /  0.0mm 0 W/m2
00:41 53.8 °F /  12.1 °C 47.8 °F /  8.8 °C 29.7in /  1005.8hPa WNW 4mph /  6.4km/h 8mph /  12.9km/h 80% 0in /  0.0mm 0 W/m2
00:46 53.8 °F /  12.1 °C 47.8 °F /  8.8 °C 29.7in /  1005.8hPa NNW 4.9mph /  7.9km/h 6mph /  9.7km/h 80% 0in /  0.0mm 0 W/m2
00:51 53.8 °F /  12.1 °C 47.8 °F /  8.8 °C 29.7in /  1005.8hPa NW 4mph /  6.4km/h 9mph /  14.5km/h 80% 0in /  0.0mm 0 W/m2
00:56 53.8 °F /  12.1 °C 47.8 °F /  8.8 °C 29.7in /  1005.8hPa WNW 2.9mph /  4.7km/h 10mph /  16.1km/h 80% 0in /  0.0mm 0 W/m2
01:01 53.8 °F /  12.1 °C 47.8 °F /  8.8 °C 29.7in /  1005.8hPa NW 4mph /  6.4km/h 6mph /  9.7km/h 80% 0in /  0.0mm 0 W/m2
01:06 53.8 °F /  12.1 °C 47.8 °F /  8.8 °C 29.7in /  1005.8hPa NW 6mph /  9.7km/h 7mph /  11.3km/h 80% 0in /  0.0mm 0 W/m2
01:11 53.6 °F /  12 °C 47.8 °F /  8.8 °C 29.7in /  1005.8hPa WNW 4mph /  6.4km/h 7mph /  11.3km/h 81% 0in /  0.0mm 0 W/m2
01:16 53.4 °F /  11.9 °C 47.7 °F /  8.7 °C 29.7in /  1005.8hPa West 6.9mph /  11.1km/h 7mph /  11.3km/h 81% 0in /  0.0mm 0 W/m2
01:21 53.4 °F /  11.9 °C 47.7 °F /  8.7 °C 29.7in /  1005.8hPa WNW 4mph /  6.4km/h 6mph /  9.7km/h 81% 0in /  0.0mm 0 W/m2
01:26 53.2 °F /  11.8 °C 47.5 °F /  8.6 °C 29.7in /  1005.8hPa NW 4.9mph /  7.9km/h 5mph /  8km/h 81% 0in /  0.0mm 0 W/m2
01:32 53.1 °F /  11.7 °C 47.7 °F /  8.7 °C 29.7in /  1005.8hPa WSW 4mph /  6.4km/h 7mph /  11.3km/h 82% 0in /  0.0mm 0 W/m2
01:37 52.9 °F /  11.6 °C 47.5 °F /  8.6 °C 29.7in /  1005.8hPa WNW 6.9mph /  11.1km/h 8mph /  12.9km/h 82% 0in /  0.0mm 0 W/m2
01:42 52.7 °F /  11.5 °C 47.7 °F /  8.7 °C 29.7in /  1005.8hPa WNW 2.9mph /  4.7km/h 6mph /  9.7km/h 83% 0in /  0.0mm 0 W/m2
01:47 52.5 °F /  11.4 °C 47.5 °F /  8.6 °C 29.7in /  1005.8hPa West 6mph /  9.7km/h 7mph /  11.3km/h 83% 0in /  0.0mm 0 W/m2
01:52 52.5 °F /  11.4 °C 47.5 °F /  8.6 °C 29.7in /  1005.8hPa WSW 6.9mph /  11.1km/h 10mph /  16.1km/h 83% 0in /  0.0mm 0 W/m2
01:57 52.5 °F /  11.4 °C 47.5 °F /  8.6 °C 29.7in /  1005.8hPa West 6mph /  9.7km/h 9mph /  14.5km/h 83% 0in /  0.0mm 0 W/m2
02:02 52.5 °F /  11.4 °C 47.5 °F /  8.6 °C 29.7in /  1005.8hPa WNW 4mph /  6.4km/h 10mph /  16.1km/h 83% 0in /  0.0mm 0 W/m2
02:07 52.5 °F /  11.4 °C 47.8 °F /  8.8 °C 29.7in /  1005.8hPa West 2.9mph /  4.7km/h 8mph /  12.9km/h 84% 0in /  0.0mm 0 W/m2
02:12 52.3 °F /  11.3 °C 47.7 °F /  8.7 °C 29.7in /  1005.8hPa SW 4.9mph /  7.9km/h 10mph /  16.1km/h 84% 0in /  0.0mm 0 W/m2
02:17 52.3 °F /  11.3 °C 47.7 °F /  8.7 °C 29.7in /  1005.8hPa West 4mph /  6.4km/h 7mph /  11.3km/h 84% 0in /  0.0mm 0 W/m2
02:22 52.3 °F /  11.3 °C 47.7 °F /  8.7 °C 29.7in /  1005.8hPa NNE 2.9mph /  4.7km/h 9mph /  14.5km/h 84% 0in /  0.0mm 0 W/m2
02:27 52.2 °F /  11.2 °C 47.8 °F /  8.8 °C 29.7in /  1005.8hPa West 2.9mph /  4.7km/h 5mph /  8km/h 85% 0in /  0.0mm 0 W/m2
02:32 52.2 °F /  11.2 °C 47.8 °F /  8.8 °C 29.7in /  1005.8hPa NW 4.9mph /  7.9km/h 9mph /  14.5km/h 85% 0in /  0.0mm 0 W/m2
02:37 52 °F /  11.1 °C 47.7 °F /  8.7 °C 29.7in /  1005.8hPa WSW 0.9mph /  1.4km/h 3mph /  4.8km/h 85% 0in /  0.0mm 0 W/m2
02:42 51.8 °F /  11 °C 47.5 °F /  8.6 °C 29.7in /  1005.8hPa WSW 2.9mph /  4.7km/h 8mph /  12.9km/h 85% 0in /  0.0mm 0 W/m2
02:47 51.6 °F /  10.9 °C 47.5 °F /  8.6 °C 29.7in /  1005.8hPa SSW 0.9mph /  1.4km/h 1mph /  1.6km/h 86% 0in /  0.0mm 0 W/m2
02:52 51.4 °F /  10.8 °C 47.5 °F /  8.6 °C 29.7in /  1005.8hPa NNE 2mph /  3.2km/h 5mph /  8km/h 86% 0in /  0.0mm 0 W/m2
02:57 51.4 °F /  10.8 °C 47.5 °F /  8.6 °C 29.7in /  1005.8hPa WNW 2mph /  3.2km/h 4mph /  6.4km/h 86% 0in /  0.0mm 0 W/m2
03:02 51.4 °F /  10.8 °C 47.7 °F /  8.7 °C 29.7in /  1005.8hPa Calm   3mph /  4.8km/h 87% 0in /  0.0mm 0 W/m2
03:07 51.4 °F /  10.8 °C 47.7 °F /  8.7 °C 29.7in /  1005.8hPa WNW 4mph /  6.4km/h 7mph /  11.3km/h 87% 0in /  0.0mm 0 W/m2
03:12 51.4 °F /  10.8 °C 47.7 °F /  8.7 °C 29.7in /  1005.8hPa WNW 6.9mph /  11.1km/h 11mph /  17.7km/h 87% 0in /  0.0mm 0 W/m2
03:17 51.4 °F /  10.8 °C 47.7 °F /  8.7 °C 29.7in /  1005.8hPa WNW 0.9mph /  1.4km/h 4mph /  6.4km/h 87% 0in /  0.0mm 0 W/m2
03:22 51.4 °F /  10.8 °C 48 °F /  8.9 °C 29.7in /  1005.8hPa WNW 2mph /  3.2km/h 8mph /  12.9km/h 88% 0in /  0.0mm 0 W/m2
03:27 51.6 °F /  10.9 °C 48.2 °F /  9 °C 29.7in /  1005.8hPa WSW 2mph /  3.2km/h 7mph /  11.3km/h 88% 0in /  0.0mm 0 W/m2
03:32 51.8 °F /  11 °C 48 °F /  8.9 °C 29.7in /  1006.1hPa NW 4mph /  6.4km/h 7mph /  11.3km/h 87% 0in /  0.0mm 0 W/m2
03:37 51.8 °F /  11 °C 48 °F /  8.9 °C 29.7in /  1005.8hPa NW 2mph /  3.2km/h 6mph /  9.7km/h 87% 0in /  0.0mm 0 W/m2
03:42 52 °F /  11.1 °C 48.2 °F /  9 °C 29.7in /  1006.1hPa NW 2.9mph /  4.7km/h 3mph /  4.8km/h 87% 0in /  0.0mm 0 W/m2
03:48 52 °F /  11.1 °C 48.2 °F /  9 °C 29.7in /  1006.1hPa WNW 6.9mph /  11.1km/h 7mph /  11.3km/h 87% 0in /  0.0mm 0 W/m2
03:53 52.2 °F /  11.2 °C 48.7 °F /  9.3 °C 29.7in /  1006.1hPa West 4mph /  6.4km/h 9mph /  14.5km/h 88% 0in /  0.0mm 0 W/m2
03:58 52.2 °F /  11.2 °C 48.4 °F /  9.1 °C 29.7in /  1006.1hPa NW 2.9mph /  4.7km/h 9mph /  14.5km/h 87% 0in /  0.0mm 0 W/m2
04:03 52.3 °F /  11.3 °C 48.6 °F /  9.2 °C 29.7in /  1006.1hPa WNW 2.9mph /  4.7km/h 8mph /  12.9km/h 87% 0in /  0.0mm 0 W/m2
04:08 52.3 °F /  11.3 °C 48.6 °F /  9.2 °C 29.7in /  1006.1hPa WNW 2.9mph /  4.7km/h 6mph /  9.7km/h 87% 0in /  0.0mm 0 W/m2
04:13 52.3 °F /  11.3 °C 48.6 °F /  9.2 °C 29.7in /  1006.1hPa WNW 6.9mph /  11.1km/h 8mph /  12.9km/h 87% 0in /  0.0mm 0 W/m2
04:18 52.3 °F /  11.3 °C 48.6 °F /  9.2 °C 29.7in /  1006.1hPa WNW 2.9mph /  4.7km/h 7mph /  11.3km/h 87% 0in /  0.0mm 0 W/m2
04:23 52.3 °F /  11.3 °C 48.6 °F /  9.2 °C 29.7in /  1006.1hPa West 6mph /  9.7km/h 9mph /  14.5km/h 87% 0in /  0.0mm 0 W/m2
04:28 52.3 °F /  11.3 °C 48.9 °F /  9.4 °C 29.7in /  1006.1hPa West 2mph /  3.2km/h 5mph /  8km/h 88% 0in /  0.0mm 0 W/m2
04:33 52.3 °F /  11.3 °C 48.9 °F /  9.4 °C 29.7in /  1006.1hPa West 4mph /  6.4km/h 9mph /  14.5km/h 88% 0in /  0.0mm 0 W/m2
04:38 52.3 °F /  11.3 °C 48.9 °F /  9.4 °C 29.7in /  1006.1hPa SSW 0.9mph /  1.4km/h 8mph /  12.9km/h 88% 0in /  0.0mm 0 W/m2
04:43 52.3 °F /  11.3 °C 48.9 °F /  9.4 °C 29.7in /  1006.1hPa WNW 2.9mph /  4.7km/h 9mph /  14.5km/h 88% 0in /  0.0mm 0 W/m2
04:48 52.3 °F /  11.3 °C 48.9 °F /  9.4 °C 29.7in /  1006.1hPa NW 2.9mph /  4.7km/h 9mph /  14.5km/h 88% 0in /  0.0mm 0 W/m2
04:53 52.3 °F /  11.3 °C 48.9 °F /  9.4 °C 29.7in /  1006.1hPa NNW 2.9mph /  4.7km/h 9mph /  14.5km/h 88% 0in /  0.0mm 0 W/m2
04:58 52.5 °F /  11.4 °C 49.1 °F /  9.5 °C 29.7in /  1006.1hPa West 6mph /  9.7km/h 7mph /  11.3km/h 88% 0in /  0.0mm 0 W/m2
05:03 52.5 °F /  11.4 °C 48.7 °F /  9.3 °C 29.7in /  1006.1hPa West 2.9mph /  4.7km/h 9mph /  14.5km/h 87% 0in /  0.0mm 0 W/m2
05:08 52.9 °F /  11.6 °C 49.1 °F /  9.5 °C 29.7in /  1006.1hPa WNW 6.9mph /  11.1km/h 7mph /  11.3km/h 87% 0in /  0.0mm 0 W/m2
05:13 52.9 °F /  11.6 °C 49.1 °F /  9.5 °C 29.7in /  1006.1hPa West 6mph /  9.7km/h 7mph /  11.3km/h 87% 0in /  0.0mm 0 W/m2
05:19 52.9 °F /  11.6 °C 49.1 °F /  9.5 °C 29.7in /  1006.1hPa WNW 4mph /  6.4km/h 5mph /  8km/h 87% 0in /  0.0mm 0 W/m2
05:24 52.9 °F /  11.6 °C 49.1 °F /  9.5 °C 29.7in /  1005.8hPa WNW 2mph /  3.2km/h 7mph /  11.3km/h 87% 0in /  0.0mm 0 W/m2
05:29 52.9 °F /  11.6 °C 49.1 °F /  9.5 °C 29.7in /  1006.1hPa WNW 6.9mph /  11.1km/h 7mph /  11.3km/h 87% 0in /  0.0mm 0 W/m2
05:34 52.9 °F /  11.6 °C 49.1 °F /  9.5 °C 29.7in /  1006.1hPa West 8.1mph /  13km/h 13mph /  20.9km/h 87% 0in /  0.0mm 0 W/m2
05:39 52.9 °F /  11.6 °C 48.7 °F /  9.3 °C 29.7in /  1006.1hPa WNW 4mph /  6.4km/h 5mph /  8km/h 86% 0in /  0.0mm 0 W/m2
05:44 52.7 °F /  11.5 °C 48.9 °F /  9.4 °C 29.7in /  1006.1hPa WNW 0.9mph /  1.4km/h 15mph /  24.1km/h 87% 0in /  0.0mm 0 W/m2
05:49 52.7 °F /  11.5 °C 48.9 °F /  9.4 °C 29.7in /  1006.1hPa Calm   2mph /  3.2km/h 87% 0in /  0.0mm 0 W/m2
05:54 52.5 °F /  11.4 °C 48.7 °F /  9.3 °C 29.7in /  1006.1hPa WNW 0.9mph /  1.4km/h 4mph /  6.4km/h 87% 0in /  0.0mm 0 W/m2
05:59 52.5 °F /  11.4 °C 48.7 °F /  9.3 °C 29.7in /  1006.1hPa NNW 2mph /  3.2km/h 4mph /  6.4km/h 87% 0in /  0.0mm 0 W/m2
06:04 52.3 °F /  11.3 °C 48.6 °F /  9.2 °C 29.7in /  1006.1hPa NNW 2mph /  3.2km/h 3mph /  4.8km/h 87% 0in /  0.0mm 0 W/m2
06:09 52.3 °F /  11.3 °C 48.6 °F /  9.2 °C 29.7in /  1006.4hPa NNE 0.9mph /  1.4km/h 2mph /  3.2km/h 87% 0in /  0.0mm 0 W/m2
06:14 52.3 °F /  11.3 °C 48.6 °F /  9.2 °C 29.7in /  1006.1hPa WSW 0.9mph /  1.4km/h 4mph /  6.4km/h 87% 0in /  0.0mm 0 W/m2
06:19 52.2 °F /  11.2 °C 48.4 °F /  9.1 °C 29.7in /  1006.1hPa NW 0.9mph /  1.4km/h 7mph /  11.3km/h 87% 0in /  0.0mm 0 W/m2
06:24 52 °F /  11.1 °C 48.2 °F /  9 °C 29.7in /  1006.4hPa North 2.9mph /  4.7km/h 8mph /  12.9km/h 87% 0in /  0.0mm 0 W/m2
06:29 52 °F /  11.1 °C 48.2 °F /  9 °C 29.7in /  1006.4hPa WNW 4mph /  6.4km/h 4mph /  6.4km/h 87% 0in /  0.0mm 5 W/m2
06:34 51.6 °F /  10.9 °C 47.8 °F /  8.8 °C 29.7in /  1006.4hPa SW 4mph /  6.4km/h 4mph /  6.4km/h 87% 0in /  0.0mm 7 W/m2
06:39 51.6 °F /  10.9 °C 47.8 °F /  8.8 °C 29.7in /  1006.4hPa West 2mph /  3.2km/h 4mph /  6.4km/h 87% 0in /  0.0mm 9 W/m2
06:44 51.4 °F /  10.8 °C 48 °F /  8.9 °C 29.7in /  1006.4hPa West 2.9mph /  4.7km/h 7mph /  11.3km/h 88% 0in /  0.0mm 11 W/m2
06:49 51.3 °F /  10.7 °C 47.8 °F /  8.8 °C 29.7in /  1006.4hPa NW 2.9mph /  4.7km/h 4mph /  6.4km/h 88% 0in /  0.0mm 12 W/m2
06:54 51.3 °F /  10.7 °C 47.8 °F /  8.8 °C 29.7in /  1006.4hPa WSW 0.9mph /  1.4km/h 5mph /  8km/h 88% 0in /  0.0mm 14 W/m2
06:59 51.1 °F /  10.6 °C 47.7 °F /  8.7 °C 29.7in /  1006.8hPa SW 2.9mph /  4.7km/h 6mph /  9.7km/h 88% 0in /  0.0mm 16 W/m2
07:04 51.1 °F /  10.6 °C 47.7 °F /  8.7 °C 29.7in /  1006.8hPa Calm   3mph /  4.8km/h 88% 0in /  0.0mm 16 W/m2
07:09 50.9 °F /  10.5 °C 47.5 °F /  8.6 °C 29.7in /  1006.8hPa Calm   1mph /  1.6km/h 88% 0in /  0.0mm 19 W/m2
07:14 50.7 °F /  10.4 °C 47.3 °F /  8.5 °C 29.7in /  1006.8hPa SW 4mph /  6.4km/h 4mph /  6.4km/h 88% 0in /  0.0mm 25 W/m2
07:19 50.7 °F /  10.4 °C 47.7 °F /  8.7 °C 29.7in /  1006.8hPa Calm   1mph /  1.6km/h 89% 0in /  0.0mm 25 W/m2
07:24 50.5 °F /  10.3 °C 47.5 °F /  8.6 °C 29.7in /  1006.8hPa NNE 2mph /  3.2km/h 5mph /  8km/h 89% 0in /  0.0mm 25 W/m2
07:29 50.5 °F /  10.3 °C 47.5 °F /  8.6 °C 29.7in /  1006.8hPa NNW 2mph /  3.2km/h 2mph /  3.2km/h 89% 0in /  0.0mm 28 W/m2
07:34 50.5 °F /  10.3 °C 47.5 °F /  8.6 °C 29.7in /  1007.1hPa North 4mph /  6.4km/h 4mph /  6.4km/h 89% 0in /  0.0mm 30 W/m2
07:39 50.5 °F /  10.3 °C 47.5 °F /  8.6 °C 29.7in /  1007.1hPa WNW 4mph /  6.4km/h 6mph /  9.7km/h 89% 0in /  0.0mm 54 W/m2
07:44 50.7 °F /  10.4 °C 47.7 °F /  8.7 °C 29.7in /  1007.1hPa WNW 2mph /  3.2km/h 6mph /  9.7km/h 89% 0in /  0.0mm 114 W/m2
07:49 51.1 °F /  10.6 °C 48 °F /  8.9 °C 29.7in /  1007.1hPa Calm   3mph /  4.8km/h 89% 0in /  0.0mm 98 W/m2
07:54 51.3 °F /  10.7 °C 48.2 °F /  9 °C 29.7in /  1007.1hPa WNW 0.9mph /  1.4km/h 4mph /  6.4km/h 89% 0in /  0.0mm 188 W/m2
08:00 51.6 °F /  10.9 °C 48.2 °F /  9 °C 29.7in /  1007.1hPa WNW 2mph /  3.2km/h 4mph /  6.4km/h 88% 0in /  0.0mm 121 W/m2
08:05 52 °F /  11.1 °C 48.2 °F /  9 °C 29.7in /  1007.1hPa NW 2mph /  3.2km/h 4mph /  6.4km/h 87% 0in /  0.0mm 193 W/m2
08:10 52.2 °F /  11.2 °C 48 °F /  8.9 °C 29.7in /  1007.1hPa NW 2.9mph /  4.7km/h 11mph /  17.7km/h 86% 0in /  0.0mm 153 W/m2
08:15 52.3 °F /  11.3 °C 48.2 °F /  9 °C 29.7in /  1007.1hPa West 2.9mph /  4.7km/h 8mph /  12.9km/h 86% 0in /  0.0mm 185 W/m2
08:20 52.7 °F /  11.5 °C 48.4 °F /  9.1 °C 29.8in /  1007.5hPa WNW 6.9mph /  11.1km/h 11mph /  17.7km/h 85% 0in /  0.0mm 151 W/m2
08:25 52.9 °F /  11.6 °C 48.2 °F /  9 °C 29.7in /  1007.1hPa WNW 2.9mph /  4.7km/h 9mph /  14.5km/h 84% 0in /  0.0mm 257 W/m2
08:30 53.1 °F /  11.7 °C 48.4 °F /  9.1 °C 29.7in /  1007.1hPa WNW 2mph /  3.2km/h 6mph /  9.7km/h 84% 0in /  0.0mm 369 W/m2
08:35 53.2 °F /  11.8 °C 48.6 °F /  9.2 °C 29.7in /  1007.1hPa NNE 2.9mph /  4.7km/h 8mph /  12.9km/h 84% 0in /  0.0mm 348 W/m2
08:40 53.4 °F /  11.9 °C 48.4 °F /  9.1 °C 29.7in /  1007.1hPa NNW 2.9mph /  4.7km/h 8mph /  12.9km/h 83% 0in /  0.0mm 341 W/m2
08:45 53.8 °F /  12.1 °C 48.4 °F /  9.1 °C 29.7in /  1007.1hPa SW 2.9mph /  4.7km/h 9mph /  14.5km/h 82% 0in /  0.0mm 366 W/m2
08:50 53.8 °F /  12.1 °C 48.4 °F /  9.1 °C 29.7in /  1007.1hPa Calm   12mph /  19.3km/h 82% 0in /  0.0mm 403 W/m2
08:55 54.1 °F /  12.3 °C 48.7 °F /  9.3 °C 29.7in /  1007.1hPa SW 2.9mph /  4.7km/h 6mph /  9.7km/h 82% 0in /  0.0mm 490 W/m2
09:00 54.1 °F /  12.3 °C 48 °F /  8.9 °C 29.8in /  1007.5hPa NW 11mph /  17.7km/h 11mph /  17.7km/h 80% 0in /  0.0mm 267 W/m2
09:05 54.1 °F /  12.3 °C 48 °F /  8.9 °C 29.8in /  1007.5hPa WNW 4.9mph /  7.9km/h 7mph /  11.3km/h 80% 0in /  0.0mm 171 W/m2
09:10 54 °F /  12.2 °C 48 °F /  8.9 °C 29.8in /  1007.5hPa NW 4.9mph /  7.9km/h 6mph /  9.7km/h 80% 0in /  0.0mm 206 W/m2
09:15 54.1 °F /  12.3 °C 48.4 °F /  9.1 °C 29.8in /  1007.5hPa West 2mph /  3.2km/h 8mph /  12.9km/h 81% 0in /  0.0mm 190 W/m2
09:20 54.1 °F /  12.3 °C 48.4 °F /  9.1 °C 29.8in /  1007.5hPa WNW 2.9mph /  4.7km/h 7mph /  11.3km/h 81% 0in /  0.0mm 179 W/m2
09:25 54.1 °F /  12.3 °C 48 °F /  8.9 °C 29.8in /  1007.5hPa WNW 6mph /  9.7km/h 11mph /  17.7km/h 80% 0in /  0.0mm 197 W/m2
09:30 54.1 °F /  12.3 °C 48.4 °F /  9.1 °C 29.8in /  1007.5hPa NNW 2.9mph /  4.7km/h 4mph /  6.4km/h 81% 0in /  0.0mm 181 W/m2
09:35 54.1 °F /  12.3 °C 48 °F /  8.9 °C 29.8in /  1007.5hPa SW 4mph /  6.4km/h 6mph /  9.7km/h 80% 0in /  0.0mm 207 W/m2
09:41 54.1 °F /  12.3 °C 48 °F /  8.9 °C 29.8in /  1007.5hPa West 2mph /  3.2km/h 4mph /  6.4km/h 80% 0in /  0.0mm 128 W/m2
09:46 54.1 °F /  12.3 °C 48 °F /  8.9 °C 29.8in /  1007.5hPa WNW 4mph /  6.4km/h 5mph /  8km/h 80% 0in /  0.0mm 220 W/m2
09:51 54.1 °F /  12.3 °C 48 °F /  8.9 °C 29.8in /  1007.5hPa WNW 2.9mph /  4.7km/h 6mph /  9.7km/h 80% 0in /  0.0mm 244 W/m2
09:56 54.1 °F /  12.3 °C 48 °F /  8.9 °C 29.8in /  1007.5hPa SW 4mph /  6.4km/h 6mph /  9.7km/h 80% 0in /  0.0mm 278 W/m2
10:01 54.3 °F /  12.4 °C 48.2 °F /  9 °C 29.8in /  1007.5hPa WNW 2mph /  3.2km/h 4mph /  6.4km/h 80% 0in /  0.0mm 283 W/m2
10:06 54.7 °F /  12.6 °C 48.4 °F /  9.1 °C 29.8in /  1007.5hPa WNW 2mph /  3.2km/h 12mph /  19.3km/h 79% 0in /  0.0mm 257 W/m2
10:11 54.9 °F /  12.7 °C 48.2 °F /  9 °C 29.8in /  1007.8hPa NW 0.9mph /  1.4km/h 17mph /  27.4km/h 78% 0in /  0.0mm 483 W/m2
10:16 55 °F /  12.8 °C 48 °F /  8.9 °C 29.8in /  1007.5hPa West 2.9mph /  4.7km/h 11mph /  17.7km/h 77% 0in /  0.0mm 330 W/m2
10:21 55.4 °F /  13 °C 48.7 °F /  9.3 °C 29.8in /  1007.8hPa WNW 4.9mph /  7.9km/h 12mph /  19.3km/h 78% 0in /  0.0mm 766 W/m2
10:26 55.8 °F /  13.2 °C 48.7 °F /  9.3 °C 29.8in /  1007.5hPa West 0.9mph /  1.4km/h 4mph /  6.4km/h 77% 0in /  0.0mm 350 W/m2
10:31 56.3 °F /  13.5 °C 49.1 °F /  9.5 °C 29.8in /  1007.5hPa SE 6mph /  9.7km/h 6mph /  9.7km/h 77% 0in /  0.0mm 881 W/m2
10:36 57 °F /  13.9 °C 49.1 °F /  9.5 °C 29.8in /  1007.5hPa WNW 2.9mph /  4.7km/h 5mph /  8km/h 75% 0in /  0.0mm 348 W/m2
10:41 56.5 °F /  13.6 °C 48.4 °F /  9.1 °C 29.8in /  1007.8hPa West 0.9mph /  1.4km/h 10mph /  16.1km/h 74% 0in /  0.0mm 682 W/m2
10:46 56.3 °F /  13.5 °C 48.6 °F /  9.2 °C 29.8in /  1007.5hPa North 4mph /  6.4km/h 8mph /  12.9km/h 75% 0in /  0.0mm 232 W/m2
10:51 56.1 °F /  13.4 °C 48.4 °F /  9.1 °C 29.8in /  1007.5hPa NE 2mph /  3.2km/h 5mph /  8km/h 75% 0in /  0.0mm 738 W/m2
10:56 56.3 °F /  13.5 °C 48.9 °F /  9.4 °C 29.8in /  1007.5hPa NW 2.9mph /  4.7km/h 11mph /  17.7km/h 76% 0in /  0.0mm 504 W/m2
11:01 56.5 °F /  13.6 °C 48.9 °F /  9.4 °C 29.8in /  1007.5hPa West 6.9mph /  11.1km/h 14mph /  22.5km/h 76% 0in /  0.0mm 246 W/m2
11:06 56.1 °F /  13.4 °C 48.7 °F /  9.3 °C 29.8in /  1007.8hPa SW 2.9mph /  4.7km/h 9mph /  14.5km/h 76% 0in /  0.0mm 383 W/m2
11:11 55.9 °F /  13.3 °C 48.9 °F /  9.4 °C 29.8in /  1007.5hPa WSW 2.9mph /  4.7km/h 7mph /  11.3km/h 77% 0in /  0.0mm 455 W/m2
11:16 56.3 °F /  13.5 °C 48.6 °F /  9.2 °C 29.8in /  1007.5hPa NNW 2mph /  3.2km/h 12mph /  19.3km/h 75% 0in /  0.0mm 364 W/m2
11:21 56.5 °F /  13.6 °C 48.9 °F /  9.4 °C 29.8in /  1007.5hPa SSW 2mph /  3.2km/h 5mph /  8km/h 76% 0in /  0.0mm 461 W/m2
11:26 56.8 °F /  13.8 °C 48.9 °F /  9.4 °C 29.8in /  1007.5hPa Calm   12mph /  19.3km/h 75% 0in /  0.0mm 278 W/m2
11:31 56.8 °F /  13.8 °C 48.6 °F /  9.2 °C 29.8in /  1007.5hPa SSE 4.9mph /  7.9km/h 5mph /  8km/h 74% 0in /  0.0mm 403 W/m2
11:36 56.8 °F /  13.8 °C 48.9 °F /  9.4 °C 29.8in /  1007.5hPa West 6mph /  9.7km/h 12mph /  19.3km/h 75% 0in /  0.0mm 510 W/m2
11:41 57 °F /  13.9 °C 49.1 °F /  9.5 °C 29.8in /  1007.5hPa ENE 2mph /  3.2km/h 4mph /  6.4km/h 75% 0in /  0.0mm 420 W/m2
11:46 57 °F /  13.9 °C 48.4 °F /  9.1 °C 29.8in /  1007.8hPa East 6mph /  9.7km/h 12mph /  19.3km/h 73% 0in /  0.0mm 258 W/m2
11:51 56.7 °F /  13.7 °C 48.4 °F /  9.1 °C 29.8in /  1007.5hPa Calm   2mph /  3.2km/h 74% 0in /  0.0mm 364 W/m2
11:57 56.8 °F /  13.8 °C 48.6 °F /  9.2 °C 29.8in /  1007.5hPa SSE 4.9mph /  7.9km/h 12mph /  19.3km/h 74% 0in /  0.0mm 563 W/m2
12:02 57 °F /  13.9 °C 48.7 °F /  9.3 °C 29.8in /  1007.5hPa North 2mph /  3.2km/h 4mph /  6.4km/h 74% 0in /  0.0mm 385 W/m2
12:07 57.4 °F /  14.1 °C 49.1 °F /  9.5 °C 29.8in /  1007.5hPa WNW 4mph /  6.4km/h 9mph /  14.5km/h 74% 0in /  0.0mm 128 W/m2
12:12 56.8 °F /  13.8 °C 48.6 °F /  9.2 °C 29.8in /  1007.5hPa North 2.9mph /  4.7km/h 5mph /  8km/h 74% 0in /  0.0mm 148 W/m2
12:17 56.5 °F /  13.6 °C 48.7 °F /  9.3 °C 29.8in /  1007.5hPa ENE 0.9mph /  1.4km/h 8mph /  12.9km/h 75% 0in /  0.0mm 107 W/m2
12:22 56.1 °F /  13.4 °C 48.7 °F /  9.3 °C 29.8in /  1007.5hPa West 4mph /  6.4km/h 6mph /  9.7km/h 76% 0in /  0.0mm 246 W/m2
12:27 55.9 °F /  13.3 °C 48.9 °F /  9.4 °C 29.8in /  1007.5hPa NW 2.9mph /  4.7km/h 8mph /  12.9km/h 77% 0in /  0.0mm 432 W/m2
12:32 56.7 °F /  13.7 °C 49.5 °F /  9.7 °C 29.8in /  1007.5hPa West 11mph /  17.7km/h 11mph /  17.7km/h 77% 0in /  0.0mm 271 W/m2
12:37 57 °F /  13.9 °C 49.5 °F /  9.7 °C 29.8in /  1007.5hPa WNW 2mph /  3.2km/h 8mph /  12.9km/h 76% 0in /  0.0mm 418 W/m2
12:42 57.4 °F /  14.1 °C 49.5 °F /  9.7 °C 29.8in /  1007.5hPa West 10.1mph /  16.3km/h 10mph /  16.1km/h 75% 0in /  0.0mm 374 W/m2
12:47 57.7 °F /  14.3 °C 49.8 °F /  9.9 °C 29.7in /  1007.1hPa WNW 2.9mph /  4.7km/h 9mph /  14.5km/h 75% 0in /  0.0mm 413 W/m2
12:52 58.1 °F /  14.5 °C 49.8 °F /  9.9 °C 29.7in /  1007.1hPa WNW 4mph /  6.4km/h 7mph /  11.3km/h 74% 0in /  0.0mm 318 W/m2
12:57 58.3 °F /  14.6 °C 50.4 °F /  10.2 °C 29.7in /  1007.1hPa SW 2.9mph /  4.7km/h 6mph /  9.7km/h 75% 0in /  0.0mm 243 W/m2
13:02 58.1 °F /  14.5 °C 50.5 °F /  10.3 °C 29.8in /  1007.5hPa NW 8.1mph /  13km/h 8mph /  12.9km/h 76% 0in /  0.0mm 443 W/m2
13:07 57.9 °F /  14.4 °C 50.4 °F /  10.2 °C 29.8in /  1007.5hPa NW 6mph /  9.7km/h 6mph /  9.7km/h 76% 0in /  0.0mm 439 W/m2
13:12 58.3 °F /  14.6 °C 50.4 °F /  10.2 °C 29.8in /  1007.5hPa SW 2.9mph /  4.7km/h 8mph /  12.9km/h 75% 0in /  0.0mm 274 W/m2
13:17 57.9 °F /  14.4 °C 50 °F /  10 °C 29.8in /  1007.5hPa North 2mph /  3.2km/h 7mph /  11.3km/h 75% 0in /  0.0mm 313 W/m2
13:22 57.6 °F /  14.2 °C 50.4 °F /  10.2 °C 29.8in /  1007.5hPa West 2.9mph /  4.7km/h 9mph /  14.5km/h 77% 0in /  0.0mm 522 W/m2
13:27 57.6 °F /  14.2 °C 51.1 °F /  10.6 °C 29.8in /  1007.5hPa WSW 2mph /  3.2km/h 6mph /  9.7km/h 79% 0in /  0.0mm 686 W/m2
13:33 57.7 °F /  14.3 °C 51.3 °F /  10.7 °C 29.8in /  1007.5hPa WNW 0.9mph /  1.4km/h 2mph /  3.2km/h 79% 0in /  0.0mm 394 W/m2
13:38 57.7 °F /  14.3 °C 51.3 °F /  10.7 °C 29.8in /  1007.5hPa WNW 8.9mph /  14.3km/h 13mph /  20.9km/h 79% 0in /  0.0mm 450 W/m2
13:43 57.7 °F /  14.3 °C 52 °F /  11.1 °C 29.8in /  1007.5hPa North 4mph /  6.4km/h 5mph /  8km/h 81% 0in /  0.0mm 937 W/m2
13:48 57.7 °F /  14.3 °C 51.3 °F /  10.7 °C 29.8in /  1007.5hPa WNW 0.9mph /  1.4km/h 13mph /  20.9km/h 79% 0in /  0.0mm 107 W/m2
13:53 57.7 °F /  14.3 °C 50.9 °F /  10.5 °C 29.7in /  1007.1hPa WNW 2mph /  3.2km/h 7mph /  11.3km/h 78% 0in /  0.0mm 842 W/m2
13:58 58.5 °F /  14.7 °C 50.9 °F /  10.5 °C 29.7in /  1007.1hPa West 6mph /  9.7km/h 11mph /  17.7km/h 76% 0in /  0.0mm 197 W/m2
14:03 58.6 °F /  14.8 °C 50.4 °F /  10.2 °C 29.7in /  1007.1hPa WNW 2.9mph /  4.7km/h 13mph /  20.9km/h 74% 0in /  0.0mm 178 W/m2
14:08 58.6 °F /  14.8 °C 50.7 °F /  10.4 °C 29.7in /  1007.1hPa WSW 2mph /  3.2km/h 7mph /  11.3km/h 75% 0in /  0.0mm 856 W/m2
14:13 59.4 °F /  15.2 °C 50.7 °F /  10.4 °C 29.7in /  1007.1hPa North 2mph /  3.2km/h 13mph /  20.9km/h 73% 0in /  0.0mm 856 W/m2
14:18 59.7 °F /  15.4 °C 50.7 °F /  10.4 °C 29.7in /  1007.1hPa West 2mph /  3.2km/h 7mph /  11.3km/h 72% 0in /  0.0mm 585 W/m2
14:23 60.1 °F /  15.6 °C 50.7 °F /  10.4 °C 29.7in /  1007.1hPa WSW 4mph /  6.4km/h 7mph /  11.3km/h 71% 0in /  0.0mm 272 W/m2
14:28 59.9 °F /  15.5 °C 49.3 °F /  9.6 °C 29.7in /  1007.1hPa WNW 2.9mph /  4.7km/h 12mph /  19.3km/h 68% 0in /  0.0mm 181 W/m2
14:33 59.4 °F /  15.2 °C 49.6 °F /  9.8 °C 29.7in /  1007.1hPa NW 4mph /  6.4km/h 7mph /  11.3km/h 70% 0in /  0.0mm 137 W/m2
14:38 58.8 °F /  14.9 °C 49.5 °F /  9.7 °C 29.7in /  1007.1hPa WNW 2mph /  3.2km/h 12mph /  19.3km/h 71% 0in /  0.0mm 160 W/m2
14:43 58.6 °F /  14.8 °C 51.1 °F /  10.6 °C 29.7in /  1007.1hPa SE 0.9mph /  1.4km/h 2mph /  3.2km/h 76% 0in /  0.0mm 199 W/m2
14:48 58.8 °F /  14.9 °C 51.6 °F /  10.9 °C 29.7in /  1007.1hPa WNW 6.9mph /  11.1km/h 10mph /  16.1km/h 77% 0in /  0.0mm 795 W/m2
14:53 59.2 °F /  15.1 °C 51.6 °F /  10.9 °C 29.7in /  1007.1hPa NW 4.9mph /  7.9km/h 6mph /  9.7km/h 76% 0in /  0.0mm 207 W/m2
14:58 59 °F /  15 °C 50.7 °F /  10.4 °C 29.7in /  1007.1hPa WNW 2mph /  3.2km/h 9mph /  14.5km/h 74% 0in /  0.0mm 185 W/m2
15:04 59 °F /  15 °C 50.7 °F /  10.4 °C 29.7in /  1007.1hPa WNW 4mph /  6.4km/h 7mph /  11.3km/h 74% 0in /  0.0mm 374 W/m2
15:09 59.5 °F /  15.3 °C 50.9 °F /  10.5 °C 29.7in /  1007.1hPa NW 4mph /  6.4km/h 8mph /  12.9km/h 73% 0in /  0.0mm 378 W/m2
15:14 60.1 °F /  15.6 °C 50.7 °F /  10.4 °C 29.7in /  1007.1hPa NW 2.9mph /  4.7km/h 4mph /  6.4km/h 71% 0in /  0.0mm 510 W/m2
15:19 60.6 °F /  15.9 °C 50.4 °F /  10.2 °C 29.7in /  1007.1hPa WSW 2mph /  3.2km/h 8mph /  12.9km/h 69% 0in /  0.0mm 253 W/m2
15:24 61.2 °F /  16.2 °C 49.6 °F /  9.8 °C 29.7in /  1006.8hPa WNW 4mph /  6.4km/h 7mph /  11.3km/h 66% 0in /  0.0mm 921 W/m2
15:29 61.2 °F /  16.2 °C 49.6 °F /  9.8 °C 29.7in /  1006.8hPa WSW 6mph /  9.7km/h 9mph /  14.5km/h 66% 0in /  0.0mm 216 W/m2
15:34 60.8 °F /  16 °C 49.8 °F /  9.9 °C 29.7in /  1006.8hPa West 2mph /  3.2km/h 6mph /  9.7km/h 67% 0in /  0.0mm 207 W/m2
15:39 60.3 °F /  15.7 °C 48.9 °F /  9.4 °C 29.7in /  1006.8hPa WSW 2mph /  3.2km/h 9mph /  14.5km/h 66% 0in /  0.0mm 243 W/m2
15:44 59.9 °F /  15.5 °C 49.3 °F /  9.6 °C 29.7in /  1006.8hPa WNW 6.9mph /  11.1km/h 11mph /  17.7km/h 68% 0in /  0.0mm 216 W/m2
15:49 59.5 °F /  15.3 °C 50.9 °F /  10.5 °C 29.7in /  1006.8hPa WSW 2.9mph /  4.7km/h 4mph /  6.4km/h 73% 0in /  0.0mm 831 W/m2
15:54 60.1 °F /  15.6 °C 51.4 °F /  10.8 °C 29.7in /  1006.4hPa West 2mph /  3.2km/h 4mph /  6.4km/h 73% 0in /  0.0mm 670 W/m2
15:59 60.3 °F /  15.7 °C 50.9 °F /  10.5 °C 29.7in /  1006.4hPa WSW 4.9mph /  7.9km/h 8mph /  12.9km/h 71% 0in /  0.0mm 642 W/m2
16:04 60.6 °F /  15.9 °C 50.7 °F /  10.4 °C 29.7in /  1006.4hPa Calm   8mph /  12.9km/h 70% 0in /  0.0mm 141 W/m2
16:09 60.8 °F /  16 °C 51.3 °F /  10.7 °C 29.7in /  1006.4hPa WNW 0.9mph /  1.4km/h 6mph /  9.7km/h 71% 0in /  0.0mm 751 W/m2
16:14 61 °F /  16.1 °C 51.4 °F /  10.8 °C 29.7in /  1006.4hPa West 4mph /  6.4km/h 8mph /  12.9km/h 71% 0in /  0.0mm 204 W/m2
16:19 61 °F /  16.1 °C 51.1 °F /  10.6 °C 29.7in /  1006.4hPa West 6mph /  9.7km/h 8mph /  12.9km/h 70% 0in /  0.0mm 120 W/m2
16:24 60.4 °F /  15.8 °C 51.4 °F /  10.8 °C 29.7in /  1006.4hPa WNW 2mph /  3.2km/h 6mph /  9.7km/h 72% 0in /  0.0mm 225 W/m2
16:29 60.4 °F /  15.8 °C 51.8 °F /  11 °C 29.7in /  1006.4hPa NW 0.9mph /  1.4km/h 8mph /  12.9km/h 73% 0in /  0.0mm 251 W/m2
16:34 61 °F /  16.1 °C 50.7 °F /  10.4 °C 29.7in /  1006.4hPa WNW 2mph /  3.2km/h 8mph /  12.9km/h 69% 0in /  0.0mm 592 W/m2
16:39 61.3 °F /  16.3 °C 50.7 °F /  10.4 °C 29.7in /  1006.4hPa WNW 4mph /  6.4km/h 4mph /  6.4km/h 68% 0in /  0.0mm 267 W/m2
16:44 61.3 °F /  16.3 °C 49.5 °F /  9.7 °C 29.7in /  1006.4hPa North 2mph /  3.2km/h 9mph /  14.5km/h 65% 0in /  0.0mm 232 W/m2
16:49 61.3 °F /  16.3 °C 49.5 °F /  9.7 °C 29.7in /  1006.4hPa NW 2.9mph /  4.7km/h 4mph /  6.4km/h 65% 0in /  0.0mm 269 W/m2
16:54 62.1 °F /  16.7 °C 50.9 °F /  10.5 °C 29.7in /  1006.1hPa NE 2.9mph /  4.7km/h 9mph /  14.5km/h 67% 0in /  0.0mm 656 W/m2
16:59 62.6 °F /  17 °C 50.2 °F /  10.1 °C 29.7in /  1006.4hPa NW 4mph /  6.4km/h 10mph /  16.1km/h 64% 0in /  0.0mm 613 W/m2
17:04 62.2 °F /  16.8 °C 50.4 °F /  10.2 °C 29.7in /  1006.1hPa NNE 2mph /  3.2km/h 6mph /  9.7km/h 65% 0in /  0.0mm 139 W/m2
17:09 61.3 °F /  16.3 °C 49.8 °F /  9.9 °C 29.7in /  1006.4hPa Calm   10mph /  16.1km/h 66% 0in /  0.0mm 156 W/m2
17:14 61 °F /  16.1 °C 50.4 °F /  10.2 °C 29.7in /  1006.4hPa Calm   4mph /  6.4km/h 68% 0in /  0.0mm 225 W/m2
17:20 60.8 °F /  16 °C 50.2 °F /  10.1 °C 29.7in /  1006.1hPa West 0.9mph /  1.4km/h 6mph /  9.7km/h 68% 0in /  0.0mm 304 W/m2
17:25 61 °F /  16.1 °C 50 °F /  10 °C 29.7in /  1006.1hPa NW 4mph /  6.4km/h 10mph /  16.1km/h 67% 0in /  0.0mm 121 W/m2
17:30 61 °F /  16.1 °C 49.5 °F /  9.7 °C 29.7in /  1006.1hPa WNW 2.9mph /  4.7km/h 6mph /  9.7km/h 66% 0in /  0.0mm 93 W/m2
17:35 61.2 °F /  16.2 °C 49.6 °F /  9.8 °C 29.7in /  1006.1hPa WNW 2.9mph /  4.7km/h 10mph /  16.1km/h 66% 0in /  0.0mm 111 W/m2
17:40 61.3 °F /  16.3 °C 49.8 °F /  9.9 °C 29.7in /  1006.1hPa West 0.9mph /  1.4km/h 4mph /  6.4km/h 66% 0in /  0.0mm 120 W/m2
17:45 61.9 °F /  16.6 °C 50 °F /  10 °C 29.7in /  1006.1hPa NNW 0.9mph /  1.4km/h 4mph /  6.4km/h 65% 0in /  0.0mm 111 W/m2
17:50 62.2 °F /  16.8 °C 50 °F /  10 °C 29.7in /  1006.1hPa NNW 2mph /  3.2km/h 4mph /  6.4km/h 64% 0in /  0.0mm 522 W/m2
17:55 62.4 °F /  16.9 °C 49.6 °F /  9.8 °C 29.7in /  1006.1hPa NW 2mph /  3.2km/h 6mph /  9.7km/h 63% 0in /  0.0mm 401 W/m2
18:00 62.4 °F /  16.9 °C 50 °F /  10 °C 29.7in /  1006.1hPa NE 2mph /  3.2km/h 2mph /  3.2km/h 64% 0in /  0.0mm 86 W/m2
18:05 62.2 °F /  16.8 °C 50.4 °F /  10.2 °C 29.7in /  1006.1hPa WNW 2.9mph /  4.7km/h 3mph /  4.8km/h 65% 0in /  0.0mm 125 W/m2
18:10 62.1 °F /  16.7 °C 50.9 °F /  10.5 °C 29.7in /  1006.1hPa NW 2mph /  3.2km/h 2mph /  3.2km/h 67% 0in /  0.0mm 439 W/m2
18:15 62.2 °F /  16.8 °C 50.4 °F /  10.2 °C 29.7in /  1006.1hPa East 2mph /  3.2km/h 2mph /  3.2km/h 65% 0in /  0.0mm 107 W/m2
18:20 62.4 °F /  16.9 °C 49.3 °F /  9.6 °C 29.7in /  1006.1hPa SSW 4mph /  6.4km/h 6mph /  9.7km/h 62% 0in /  0.0mm 121 W/m2
18:25 62.4 °F /  16.9 °C 48.7 °F /  9.3 °C 29.7in /  1006.1hPa North 2.9mph /  4.7km/h 3mph /  4.8km/h 61% 0in /  0.0mm 125 W/m2
18:30 62.4 °F /  16.9 °C 48.4 °F /  9.1 °C 29.7in /  1006.1hPa West 4mph /  6.4km/h 7mph /  11.3km/h 60% 0in /  0.0mm 202 W/m2
18:35 62.2 °F /  16.8 °C 47.7 °F /  8.7 °C 29.7in /  1006.1hPa NW 4.9mph /  7.9km/h 8mph /  12.9km/h 59% 0in /  0.0mm 91 W/m2
18:40 62.2 °F /  16.8 °C 48.2 °F /  9 °C 29.7in /  1005.8hPa WNW 2mph /  3.2km/h 3mph /  4.8km/h 60% 0in /  0.0mm 83 W/m2
18:45 62.1 °F /  16.7 °C 47.5 °F /  8.6 °C 29.7in /  1005.8hPa NW 2mph /  3.2km/h 7mph /  11.3km/h 59% 0in /  0.0mm 127 W/m2
18:50 61.9 °F /  16.6 °C 46.9 °F /  8.3 °C 29.7in /  1006.1hPa West 6mph /  9.7km/h 11mph /  17.7km/h 58% 0in /  0.0mm 90 W/m2
18:55 61.7 °F /  16.5 °C 46.4 °F /  8 °C 29.7in /  1006.1hPa North 4.9mph /  7.9km/h 5mph /  8km/h 57% 0in /  0.0mm 77 W/m2
19:00 61.5 °F /  16.4 °C 45.7 °F /  7.6 °C 29.7in /  1006.1hPa WNW 2.9mph /  4.7km/h 13mph /  20.9km/h 56% 0in /  0.0mm 54 W/m2
19:05 61.3 °F /  16.3 °C 46 °F /  7.8 °C 29.7in /  1006.1hPa Calm   2mph /  3.2km/h 57% 0in /  0.0mm 63 W/m2
19:10 61.3 °F /  16.3 °C 46 °F /  7.8 °C 29.7in /  1006.1hPa SSW 0.9mph /  1.4km/h 8mph /  12.9km/h 57% 0in /  0.0mm 91 W/m2
19:15 61.3 °F /  16.3 °C 46 °F /  7.8 °C 29.7in /  1006.1hPa West 2.9mph /  4.7km/h 7mph /  11.3km/h 57% 0in /  0.0mm 137 W/m2
19:20 61.3 °F /  16.3 °C 46 °F /  7.8 °C 29.7in /  1005.8hPa North 2.9mph /  4.7km/h 7mph /  11.3km/h 57% 0in /  0.0mm 104 W/m2
19:25 61.3 °F /  16.3 °C 46 °F /  7.8 °C 29.7in /  1005.8hPa WNW 0.9mph /  1.4km/h 3mph /  4.8km/h 57% 0in /  0.0mm 91 W/m2
19:30 61.3 °F /  16.3 °C 46 °F /  7.8 °C 29.7in /  1005.8hPa WSW 2.9mph /  4.7km/h 3mph /  4.8km/h 57% 0in /  0.0mm 46 W/m2
19:35 61.2 °F /  16.2 °C 46.2 °F /  7.9 °C 29.7in /  1006.1hPa West 4mph /  6.4km/h 9mph /  14.5km/h 58% 0in /  0.0mm 26 W/m2
19:40 61 °F /  16.1 °C 46.6 °F /  8.1 °C 29.7in /  1006.1hPa NW 2.9mph /  4.7km/h 3mph /  4.8km/h 59% 0in /  0.0mm 21 W/m2
19:45 60.8 °F /  16 °C 46.4 °F /  8 °C 29.7in /  1005.8hPa NNW 2mph /  3.2km/h 9mph /  14.5km/h 59% 0in /  0.0mm 21 W/m2
19:50 60.6 °F /  15.9 °C 46.2 °F /  7.9 °C 29.7in /  1005.8hPa WNW 0.9mph /  1.4km/h 3mph /  4.8km/h 59% 0in /  0.0mm 21 W/m2
19:55 60.6 °F /  15.9 °C 46.6 °F /  8.1 °C 29.7in /  1005.8hPa Calm   1mph /  1.6km/h 60% 0in /  0.0mm 23 W/m2
20:00 60.4 °F /  15.8 °C 46.4 °F /  8 °C 29.7in /  1005.8hPa West 2.9mph /  4.7km/h 4mph /  6.4km/h 60% 0in /  0.0mm 26 W/m2
20:05 60.3 °F /  15.7 °C 46.8 °F /  8.2 °C 29.7in /  1005.8hPa NNE 2.9mph /  4.7km/h 3mph /  4.8km/h 61% 0in /  0.0mm 21 W/m2
20:10 60.3 °F /  15.7 °C 47.1 °F /  8.4 °C 29.7in /  1005.8hPa NNW 0.9mph /  1.4km/h 2mph /  3.2km/h 62% 0in /  0.0mm 16 W/m2
20:15 60.1 °F /  15.6 °C 48.2 °F /  9 °C 29.7in /  1005.8hPa NW 0.9mph /  1.4km/h 2mph /  3.2km/h 65% 0in /  0.0mm 14 W/m2
20:20 59.5 °F /  15.3 °C 48.2 °F /  9 °C 29.7in /  1005.8hPa Calm   1mph /  1.6km/h 66% 0.01in /  0.2mm 12 W/m2
20:25 59.2 °F /  15.1 °C 49.5 °F /  9.7 °C 29.7in /  1005.8hPa Calm   2mph /  3.2km/h 70% 0.01in /  0.2mm 12 W/m2
20:30 58.6 °F /  14.8 °C 48.6 °F /  9.2 °C 29.7in /  1005.8hPa Calm   3mph /  4.8km/h 69% 0.01in /  0.2mm 7 W/m2
20:35 58.5 °F /  14.7 °C 49.1 °F /  9.5 °C 29.7in /  1006.1hPa Calm     71% 0.01in /  0.2mm 7 W/m2
20:40 57.9 °F /  14.4 °C 48.9 °F /  9.4 °C 29.7in /  1006.1hPa Calm   2mph /  3.2km/h 72% 0.01in /  0.2mm 5 W/m2
20:45 57.7 °F /  14.3 °C 48.4 °F /  9.1 °C 29.7in /  1005.8hPa ENE 0.9mph /  1.4km/h 2mph /  3.2km/h 71% 0.01in /  0.2mm 0 W/m2
20:50 57.6 °F /  14.2 °C 48.6 °F /  9.2 °C 29.7in /  1005.8hPa NE 0.9mph /  1.4km/h 2mph /  3.2km/h 72% 0.01in /  0.2mm 0 W/m2
20:55 57.4 °F /  14.1 °C 49.1 °F /  9.5 °C 29.7in /  1005.8hPa WNW 0.9mph /  1.4km/h 2mph /  3.2km/h 74% 0.01in /  0.2mm 0 W/m2
21:00 57 °F /  13.9 °C 49.1 °F /  9.5 °C 29.7in /  1005.8hPa NE 0.9mph /  1.4km/h 1mph /  1.6km/h 75% 0.01in /  0.2mm 0 W/m2
21:05 56.7 °F /  13.7 °C 49.8 °F /  9.9 °C 29.7in /  1005.8hPa Calm     78% 0.01in /  0.2mm 0 W/m2
21:10 56.3 °F /  13.5 °C 49.8 °F /  9.9 °C 29.7in /  1005.8hPa NE 0.9mph /  1.4km/h 2mph /  3.2km/h 79% 0.01in /  0.2mm 0 W/m2
21:15 55.9 °F /  13.3 °C 49.8 °F /  9.9 °C 29.7in /  1005.8hPa Calm   1mph /  1.6km/h 80% 0.01in /  0.2mm 0 W/m2
21:20 55.8 °F /  13.2 °C 50 °F /  10 °C 29.7in /  1005.8hPa NE 2mph /  3.2km/h 2mph /  3.2km/h 81% 0in /  0.0mm 0 W/m2
21:25 55.6 °F /  13.1 °C 50.2 °F /  10.1 °C 29.7in /  1005.8hPa Calm     82% 0in /  0.0mm 0 W/m2
21:30 55.2 °F /  12.9 °C 49.8 °F /  9.9 °C 29.7in /  1006.1hPa South 2mph /  3.2km/h 4mph /  6.4km/h 82% 0in /  0.0mm 0 W/m2
21:35 55 °F /  12.8 °C 49.6 °F /  9.8 °C 29.7in /  1005.8hPa SSW 2mph /  3.2km/h 2mph /  3.2km/h 82% 0in /  0.0mm 0 W/m2
21:40 55 °F /  12.8 °C 49.3 °F /  9.6 °C 29.7in /  1006.1hPa East 0.9mph /  1.4km/h 4mph /  6.4km/h 81% 0in /  0.0mm 0 W/m2
21:46 55.2 °F /  12.9 °C 49.5 °F /  9.7 °C 29.7in /  1006.1hPa Calm   2mph /  3.2km/h 81% 0in /  0.0mm 0 W/m2
21:51 55.2 °F /  12.9 °C 49.1 °F /  9.5 °C 29.7in /  1006.1hPa NNE 2mph /  3.2km/h 3mph /  4.8km/h 80% 0in /  0.0mm 0 W/m2
21:56 55.6 °F /  13.1 °C 49.1 °F /  9.5 °C 29.7in /  1006.1hPa South 0.9mph /  1.4km/h 7mph /  11.3km/h 79% 0in /  0.0mm 0 W/m2
22:01 55.8 °F /  13.2 °C 49.3 °F /  9.6 °C 29.7in /  1006.1hPa Calm   6mph /  9.7km/h 79% 0.01in /  0.2mm 0 W/m2
22:06 55.8 °F /  13.2 °C 49.6 °F /  9.8 °C 29.7in /  1006.4hPa NNW 6mph /  9.7km/h 8mph /  12.9km/h 80% 0.01in /  0.2mm 0 W/m2
22:11 55.8 °F /  13.2 °C 49.6 °F /  9.8 °C 29.7in /  1006.1hPa NW 0.9mph /  1.4km/h 6mph /  9.7km/h 80% 0.01in /  0.2mm 0 W/m2
22:16 55.8 °F /  13.2 °C 49.6 °F /  9.8 °C 29.7in /  1006.1hPa ENE 2mph /  3.2km/h 3mph /  4.8km/h 80% 0.01in /  0.2mm 0 W/m2
22:21 55.6 °F /  13.1 °C 49.5 °F /  9.7 °C 29.7in /  1006.1hPa NNW 2mph /  3.2km/h 6mph /  9.7km/h 80% 0.01in /  0.2mm 0 W/m2
22:26 55.4 °F /  13 °C 49.6 °F /  9.8 °C 29.7in /  1006.1hPa Calm   3mph /  4.8km/h 81% 0.01in /  0.2mm 0 W/m2
22:31 55.2 °F /  12.9 °C 49.5 °F /  9.7 °C 29.7in /  1006.1hPa NW 2.9mph /  4.7km/h 4mph /  6.4km/h 81% 0.01in /  0.2mm 0 W/m2
22:36 55 °F /  12.8 °C 49.6 °F /  9.8 °C 29.7in /  1006.1hPa South 0.9mph /  1.4km/h 8mph /  12.9km/h 82% 0.01in /  0.2mm 0 W/m2
22:41 55 °F /  12.8 °C 50 °F /  10 °C 29.7in /  1006.1hPa NW 0.9mph /  1.4km/h 4mph /  6.4km/h 83% 0.01in /  0.2mm 0 W/m2
22:46 55 °F /  12.8 °C 50 °F /  10 °C 29.7in /  1006.1hPa NW 2mph /  3.2km/h 5mph /  8km/h 83% 0.01in /  0.2mm 0 W/m2
22:51 54.9 °F /  12.7 °C 49.8 °F /  9.9 °C 29.7in /  1005.8hPa WNW 2.9mph /  4.7km/h 5mph /  8km/h 83% 0.02in /  0.5mm 0 W/m2
22:56 54.9 °F /  12.7 °C 50.2 °F /  10.1 °C 29.7in /  1005.8hPa Calm   3mph /  4.8km/h 84% 0.02in /  0.5mm 0 W/m2
23:01 54.7 °F /  12.6 °C 50 °F /  10 °C 29.7in /  1005.8hPa NW 0.9mph /  1.4km/h 8mph /  12.9km/h 84% 0.01in /  0.2mm 0 W/m2
23:06 54.7 °F /  12.6 °C 50 °F /  10 °C 29.7in /  1005.8hPa NW 0.9mph /  1.4km/h 4mph /  6.4km/h 84% 0.01in /  0.2mm 0 W/m2
23:11 54.7 °F /  12.6 °C 50 °F /  10 °C 29.7in /  1005.8hPa NW 4.9mph /  7.9km/h 10mph /  16.1km/h 84% 0.01in /  0.2mm 0 W/m2
23:16 54.7 °F /  12.6 °C 50 °F /  10 °C 29.7in /  1005.8hPa NNE 4mph /  6.4km/h 5mph /  8km/h 84% 0.01in /  0.2mm 0 W/m2
23:21 54.7 °F /  12.6 °C 50 °F /  10 °C 29.7in /  1005.8hPa NW 0.9mph /  1.4km/h 10mph /  16.1km/h 84% 0.01in /  0.2mm 0 W/m2
23:26 54.5 °F /  12.5 °C 49.5 °F /  9.7 °C 29.7in /  1005.8hPa NNW 0.9mph /  1.4km/h 5mph /  8km/h 83% 0.01in /  0.2mm 0 W/m2
23:31 54.5 °F /  12.5 °C 49.5 °F /  9.7 °C 29.7in /  1005.8hPa Calm   7mph /  11.3km/h 83% 0.01in /  0.2mm 0 W/m2
23:36 54.5 °F /  12.5 °C 49.8 °F /  9.9 °C 29.7in /  1005.8hPa Calm   3mph /  4.8km/h 84% 0.01in /  0.2mm 0 W/m2
Juneau County Weather
Compliments of Weather Underground - 4 mb